sensor_id;sensor_type;location;lat;lon;timestamp;temperature;humidity
15115;DHT22;7658;51.456;7.622;2023-02-15T00:01:30;1.50;99.90
15115;DHT22;7658;51.456;7.622;2023-02-15T00:03:56;1.50;99.90
15115;DHT22;7658;51.456;7.622;2023-02-15T00:06:22;1.40;99.90
15115;DHT22;7658;51.456;7.622;2023-02-15T00:08:48;1.50;99.90
15115;DHT22;7658;51.456;7.622;2023-02-15T00:11:16;1.50;99.90
15115;DHT22;7658;51.456;7.622;2023-02-15T00:13:42;1.60;99.90
15115;DHT22;7658;51.456;7.622;2023-02-15T00:16:10;1.60;99.90
15115;DHT22;7658;51.456;7.622;2023-02-15T00:18:37;1.70;99.90
15115;DHT22;7658;51.456;7.622;2023-02-15T00:21:06;1.70;99.90
15115;DHT22;7658;51.456;7.622;2023-02-15T00:23:32;1.50;99.90
15115;DHT22;7658;51.456;7.622;2023-02-15T00:28:31;1.30;99.90
15115;DHT22;7658;51.456;7.622;2023-02-15T00:31:07;1.30;99.90
15115;DHT22;7658;51.456;7.622;2023-02-15T00:33:34;1.20;99.90
15115;DHT22;7658;51.456;7.622;2023-02-15T00:36:00;1.20;99.90
15115;DHT22;7658;51.456;7.622;2023-02-15T00:38:28;1.10;99.90
15115;DHT22;7658;51.456;7.622;2023-02-15T00:40:58;1.00;99.90
15115;DHT22;7658;51.456;7.622;2023-02-15T00:43:25;1.00;99.90
15115;DHT22;7658;51.456;7.622;2023-02-15T00:45:50;1.10;99.90
15115;DHT22;7658;51.456;7.622;2023-02-15T00:48:16;1.20;99.90
15115;DHT22;7658;51.456;7.622;2023-02-15T00:50:45;1.20;99.90
15115;DHT22;7658;51.456;7.622;2023-02-15T00:53:12;1.10;99.90
15115;DHT22;7658;51.456;7.622;2023-02-15T00:55:37;1.10;99.90
15115;DHT22;7658;51.456;7.622;2023-02-15T00:58:05;1.10;99.90
15115;DHT22;7658;51.456;7.622;2023-02-15T01:00:31;1.20;99.90
15115;DHT22;7658;51.456;7.622;2023-02-15T01:02:57;1.30;99.90
15115;DHT22;7658;51.456;7.622;2023-02-15T01:05:22;1.30;99.90
15115;DHT22;7658;51.456;7.622;2023-02-15T01:07:48;1.30;99.90
15115;DHT22;7658;51.456;7.622;2023-02-15T01:10:14;1.40;99.90
15115;DHT22;7658;51.456;7.622;2023-02-15T01:12:40;1.40;99.90
15115;DHT22;7658;51.456;7.622;2023-02-15T01:15:06;1.20;99.90
15115;DHT22;7658;51.456;7.622;2023-02-15T01:17:32;1.00;99.90
15115;DHT22;7658;51.456;7.622;2023-02-15T01:19:57;1.00;99.90
15115;DHT22;7658;51.456;7.622;2023-02-15T01:22:24;1.00;99.90
15115;DHT22;7658;51.456;7.622;2023-02-15T01:24:50;1.10;99.90
15115;DHT22;7658;51.456;7.622;2023-02-15T01:27:16;1.10;99.90
15115;DHT22;7658;51.456;7.622;2023-02-15T01:29:42;1.10;99.90
15115;DHT22;7658;51.456;7.622;2023-02-15T01:32:08;1.00;99.90
15115;DHT22;7658;51.456;7.622;2023-02-15T01:34:33;0.90;99.90
15115;DHT22;7658;51.456;7.622;2023-02-15T01:36:59;0.90;99.90
15115;DHT22;7658;51.456;7.622;2023-02-15T01:39:25;0.80;99.90
15115;DHT22;7658;51.456;7.622;2023-02-15T01:41:51;0.80;99.90
15115;DHT22;7658;51.456;7.622;2023-02-15T01:47:09;0.80;99.90
15115;DHT22;7658;51.456;7.622;2023-02-15T01:49:35;0.90;99.90
15115;DHT22;7658;51.456;7.622;2023-02-15T01:52:02;0.70;99.90
15115;DHT22;7658;51.456;7.622;2023-02-15T01:54:31;0.60;99.90
15115;DHT22;7658;51.456;7.622;2023-02-15T01:57:07;0.70;99.90
15115;DHT22;7658;51.456;7.622;2023-02-15T01:59:35;0.60;99.90
15115;DHT22;7658;51.456;7.622;2023-02-15T02:02:05;0.70;99.90
15115;DHT22;7658;51.456;7.622;2023-02-15T02:04:50;0.70;99.90
15115;DHT22;7658;51.456;7.622;2023-02-15T02:07:20;0.70;99.90
15115;DHT22;7658;51.456;7.622;2023-02-15T02:09:48;0.70;99.90
15115;DHT22;7658;51.456;7.622;2023-02-15T02:12:15;0.90;99.90
15115;DHT22;7658;51.456;7.622;2023-02-15T02:14:42;0.80;99.90
15115;DHT22;7658;51.456;7.622;2023-02-15T02:17:16;0.80;99.90
15115;DHT22;7658;51.456;7.622;2023-02-15T02:25:50;0.60;99.90
15115;DHT22;7658;51.456;7.622;2023-02-15T02:31:31;0.60;99.90
15115;DHT22;7658;51.456;7.622;2023-02-15T02:34:11;0.50;99.90
15115;DHT22;7658;51.456;7.622;2023-02-15T02:40:00;0.50;99.90
15115;DHT22;7658;51.456;7.622;2023-02-15T02:42:50;0.50;99.90
15115;DHT22;7658;51.456;7.622;2023-02-15T02:45:24;0.40;99.90
15115;DHT22;7658;51.456;7.622;2023-02-15T02:48:13;0.40;99.90
15115;DHT22;7658;51.456;7.622;2023-02-15T02:50:41;0.30;99.90
15115;DHT22;7658;51.456;7.622;2023-02-15T02:53:08;0.20;99.90
15115;DHT22;7658;51.456;7.622;2023-02-15T02:55:43;0.20;99.90
15115;DHT22;7658;51.456;7.622;2023-02-15T02:58:31;0.20;99.90
15115;DHT22;7658;51.456;7.622;2023-02-15T03:03:58;0.10;99.90
15115;DHT22;7658;51.456;7.622;2023-02-15T03:06:54;0.10;99.90
15115;DHT22;7658;51.456;7.622;2023-02-15T03:09:27;0.00;99.90
15115;DHT22;7658;51.456;7.622;2023-02-15T03:12:00;-0.10;99.90
15115;DHT22;7658;51.456;7.622;2023-02-15T03:14:28;0.00;99.90
15115;DHT22;7658;51.456;7.622;2023-02-15T03:16:55;-0.10;99.90
15115;DHT22;7658;51.456;7.622;2023-02-15T03:19:28;0.00;99.90
15115;DHT22;7658;51.456;7.622;2023-02-15T03:22:13;-0.10;99.90
15115;DHT22;7658;51.456;7.622;2023-02-15T03:25:05;0.00;99.90
15115;DHT22;7658;51.456;7.622;2023-02-15T03:27:37;0.00;99.90
15115;DHT22;7658;51.456;7.622;2023-02-15T03:30:06;0.10;99.90
15115;DHT22;7658;51.456;7.622;2023-02-15T03:32:33;0.20;99.90
15115;DHT22;7658;51.456;7.622;2023-02-15T03:35:00;0.20;99.90
15115;DHT22;7658;51.456;7.622;2023-02-15T03:37:36;0.10;99.90
15115;DHT22;7658;51.456;7.622;2023-02-15T03:40:22;0.20;99.90
15115;DHT22;7658;51.456;7.622;2023-02-15T03:43:14;0.10;99.90
15115;DHT22;7658;51.456;7.622;2023-02-15T03:45:46;0.00;99.90
15115;DHT22;7658;51.456;7.622;2023-02-15T03:48:31;-0.10;99.90
15115;DHT22;7658;51.456;7.622;2023-02-15T03:51:01;-0.10;99.90
15115;DHT22;7658;51.456;7.622;2023-02-15T03:53:48;-0.20;99.90
15115;DHT22;7658;51.456;7.622;2023-02-15T03:56:15;-0.30;99.90
15115;DHT22;7658;51.456;7.622;2023-02-15T03:58:40;-0.30;99.90
15115;DHT22;7658;51.456;7.622;2023-02-15T04:01:35;-0.40;99.90
15115;DHT22;7658;51.456;7.622;2023-02-15T04:04:22;-0.30;99.90
15115;DHT22;7658;51.456;7.622;2023-02-15T04:06:48;-0.20;99.90
15115;DHT22;7658;51.456;7.622;2023-02-15T04:09:14;-0.10;99.90
15115;DHT22;7658;51.456;7.622;2023-02-15T04:11:58;-0.20;99.90
15115;DHT22;7658;51.456;7.622;2023-02-15T04:14:25;-0.30;99.90
15115;DHT22;7658;51.456;7.622;2023-02-15T04:17:09;-0.20;99.90
15115;DHT22;7658;51.456;7.622;2023-02-15T04:19:35;-0.20;99.90
15115;DHT22;7658;51.456;7.622;2023-02-15T04:22:19;-0.20;99.90
15115;DHT22;7658;51.456;7.622;2023-02-15T04:25:04;-0.30;99.90
15115;DHT22;7658;51.456;7.622;2023-02-15T04:27:41;-0.20;99.90
15115;DHT22;7658;51.456;7.622;2023-02-15T04:30:08;-0.30;99.90
15115;DHT22;7658;51.456;7.622;2023-02-15T04:32:35;-0.30;99.90
15115;DHT22;7658;51.456;7.622;2023-02-15T04:35:02;-0.40;99.90
15115;DHT22;7658;51.456;7.622;2023-02-15T04:37:27;-0.40;99.90
15115;DHT22;7658;51.456;7.622;2023-02-15T04:39:53;-0.30;99.90
15115;DHT22;7658;51.456;7.622;2023-02-15T04:42:19;-0.30;99.90
15115;DHT22;7658;51.456;7.622;2023-02-15T04:44:44;-0.20;99.90
15115;DHT22;7658;51.456;7.622;2023-02-15T04:47:10;-0.30;99.90
15115;DHT22;7658;51.456;7.622;2023-02-15T04:49:36;-0.40;99.90
15115;DHT22;7658;51.456;7.622;2023-02-15T04:52:02;-0.40;99.90
15115;DHT22;7658;51.456;7.622;2023-02-15T04:54:28;-0.30;99.90
15115;DHT22;7658;51.456;7.622;2023-02-15T04:56:53;-0.30;99.90
15115;DHT22;7658;51.456;7.622;2023-02-15T04:59:19;-0.30;99.90
15115;DHT22;7658;51.456;7.622;2023-02-15T05:01:45;-0.30;99.90
15115;DHT22;7658;51.456;7.622;2023-02-15T05:04:10;-0.30;99.90
15115;DHT22;7658;51.456;7.622;2023-02-15T05:06:36;-0.40;99.90
15115;DHT22;7658;51.456;7.622;2023-02-15T05:09:02;-0.50;99.90
15115;DHT22;7658;51.456;7.622;2023-02-15T05:11:28;-0.50;99.90
15115;DHT22;7658;51.456;7.622;2023-02-15T05:13:53;-0.40;99.90
15115;DHT22;7658;51.456;7.622;2023-02-15T05:16:19;-0.40;99.90
15115;DHT22;7658;51.456;7.622;2023-02-15T05:18:45;-0.50;99.90
15115;DHT22;7658;51.456;7.622;2023-02-15T05:21:10;-0.60;99.90
15115;DHT22;7658;51.456;7.622;2023-02-15T05:23:36;-0.60;99.90
15115;DHT22;7658;51.456;7.622;2023-02-15T05:26:02;-0.70;99.90
15115;DHT22;7658;51.456;7.622;2023-02-15T05:28:46;-0.70;99.90
15115;DHT22;7658;51.456;7.622;2023-02-15T05:31:14;-0.70;99.90
15115;DHT22;7658;51.456;7.622;2023-02-15T05:33:41;-0.70;99.90
15115;DHT22;7658;51.456;7.622;2023-02-15T05:36:07;-0.70;99.90
15115;DHT22;7658;51.456;7.622;2023-02-15T05:38:33;-0.70;99.90
15115;DHT22;7658;51.456;7.622;2023-02-15T05:40:59;-0.70;99.90
15115;DHT22;7658;51.456;7.622;2023-02-15T05:43:25;-0.70;99.90
15115;DHT22;7658;51.456;7.622;2023-02-15T05:45:53;-0.60;99.90
15115;DHT22;7658;51.456;7.622;2023-02-15T05:48:21;-0.60;99.90
15115;DHT22;7658;51.456;7.622;2023-02-15T05:51:00;-0.70;99.90
15115;DHT22;7658;51.456;7.622;2023-02-15T05:53:27;-0.60;99.90
15115;DHT22;7658;51.456;7.622;2023-02-15T05:55:53;-0.70;99.90
15115;DHT22;7658;51.456;7.622;2023-02-15T05:58:27;-0.70;99.90
15115;DHT22;7658;51.456;7.622;2023-02-15T06:00:53;-0.70;99.90
15115;DHT22;7658;51.456;7.622;2023-02-15T06:03:19;-0.80;99.90
15115;DHT22;7658;51.456;7.622;2023-02-15T06:05:45;-0.80;99.90
15115;DHT22;7658;51.456;7.622;2023-02-15T06:08:10;-0.80;99.90
15115;DHT22;7658;51.456;7.622;2023-02-15T06:10:36;-0.70;99.90
15115;DHT22;7658;51.456;7.622;2023-02-15T06:13:02;-0.70;99.90
15115;DHT22;7658;51.456;7.622;2023-02-15T06:15:28;-0.60;99.90
15115;DHT22;7658;51.456;7.622;2023-02-15T06:17:53;-0.70;99.90
15115;DHT22;7658;51.456;7.622;2023-02-15T06:20:19;-0.70;99.90
15115;DHT22;7658;51.456;7.622;2023-02-15T06:22:45;-0.70;99.90
15115;DHT22;7658;51.456;7.622;2023-02-15T06:25:11;-0.80;99.90
15115;DHT22;7658;51.456;7.622;2023-02-15T06:27:37;-0.90;99.90
15115;DHT22;7658;51.456;7.622;2023-02-15T06:30:07;-0.90;99.90
15115;DHT22;7658;51.456;7.622;2023-02-15T06:32:34;-0.80;99.90
15115;DHT22;7658;51.456;7.622;2023-02-15T06:34:59;-0.90;99.90
15115;DHT22;7658;51.456;7.622;2023-02-15T06:37:25;-1.00;99.90
15115;DHT22;7658;51.456;7.622;2023-02-15T06:39:51;-1.10;99.90
15115;DHT22;7658;51.456;7.622;2023-02-15T06:42:16;-1.10;99.90
15115;DHT22;7658;51.456;7.622;2023-02-15T06:44:44;-1.00;99.90
15115;DHT22;7658;51.456;7.622;2023-02-15T06:47:10;-1.00;99.90
15115;DHT22;7658;51.456;7.622;2023-02-15T06:49:36;-1.00;99.90
15115;DHT22;7658;51.456;7.622;2023-02-15T06:52:03;-0.90;99.90
15115;DHT22;7658;51.456;7.622;2023-02-15T06:54:29;-1.00;99.90
15115;DHT22;7658;51.456;7.622;2023-02-15T06:56:55;-1.00;99.90
15115;DHT22;7658;51.456;7.622;2023-02-15T06:59:21;-1.00;99.90
15115;DHT22;7658;51.456;7.622;2023-02-15T07:01:47;-1.00;99.90
15115;DHT22;7658;51.456;7.622;2023-02-15T07:04:12;-1.00;99.90
15115;DHT22;7658;51.456;7.622;2023-02-15T07:06:38;-1.10;99.90
15115;DHT22;7658;51.456;7.622;2023-02-15T07:09:04;-1.10;99.90
15115;DHT22;7658;51.456;7.622;2023-02-15T07:11:30;-1.20;99.90
15115;DHT22;7658;51.456;7.622;2023-02-15T07:14:14;-1.10;99.90
15115;DHT22;7658;51.456;7.622;2023-02-15T07:16:40;-1.10;99.90
15115;DHT22;7658;51.456;7.622;2023-02-15T07:19:06;-1.00;99.90
15115;DHT22;7658;51.456;7.622;2023-02-15T07:21:33;-0.80;99.90
15115;DHT22;7658;51.456;7.622;2023-02-15T07:23:59;-0.80;99.90
15115;DHT22;7658;51.456;7.622;2023-02-15T07:26:25;-0.70;99.90
15115;DHT22;7658;51.456;7.622;2023-02-15T07:28:51;-0.80;99.90
15115;DHT22;7658;51.456;7.622;2023-02-15T07:31:17;-0.70;99.90
15115;DHT22;7658;51.456;7.622;2023-02-15T07:33:43;-0.60;99.90
15115;DHT22;7658;51.456;7.622;2023-02-15T07:36:09;-0.60;99.90
15115;DHT22;7658;51.456;7.622;2023-02-15T07:38:39;-0.50;99.90
15115;DHT22;7658;51.456;7.622;2023-02-15T07:41:15;-0.60;99.90
15115;DHT22;7658;51.456;7.622;2023-02-15T07:43:43;-0.50;99.90
15115;DHT22;7658;51.456;7.622;2023-02-15T07:46:13;-0.40;99.90
15115;DHT22;7658;51.456;7.622;2023-02-15T07:48:39;-0.30;99.90
15115;DHT22;7658;51.456;7.622;2023-02-15T07:51:07;-0.10;99.90
15115;DHT22;7658;51.456;7.622;2023-02-15T07:53:34;0.10;99.90
15115;DHT22;7658;51.456;7.622;2023-02-15T07:56:09;0.20;99.90
15115;DHT22;7658;51.456;7.622;2023-02-15T07:58:35;0.40;99.90
15115;DHT22;7658;51.456;7.622;2023-02-15T08:03:46;0.70;99.90
15115;DHT22;7658;51.456;7.622;2023-02-15T08:06:12;0.80;99.90
15115;DHT22;7658;51.456;7.622;2023-02-15T08:08:39;0.80;99.90
15115;DHT22;7658;51.456;7.622;2023-02-15T08:11:06;0.90;99.90
15115;DHT22;7658;51.456;7.622;2023-02-15T08:13:53;1.10;99.90
15115;DHT22;7658;51.456;7.622;2023-02-15T08:18:46;1.20;99.90
15115;DHT22;7658;51.456;7.622;2023-02-15T08:21:12;1.30;99.90
15115;DHT22;7658;51.456;7.622;2023-02-15T08:23:38;1.30;99.90
15115;DHT22;7658;51.456;7.622;2023-02-15T08:26:03;1.40;99.90
15115;DHT22;7658;51.456;7.622;2023-02-15T08:28:30;1.40;99.90
15115;DHT22;7658;51.456;7.622;2023-02-15T08:31:06;1.40;99.90
15115;DHT22;7658;51.456;7.622;2023-02-15T08:33:33;1.50;99.90
15115;DHT22;7658;51.456;7.622;2023-02-15T08:36:06;1.50;99.90
15115;DHT22;7658;51.456;7.622;2023-02-15T08:38:33;1.60;99.90
15115;DHT22;7658;51.456;7.622;2023-02-15T08:41:10;1.60;99.90
15115;DHT22;7658;51.456;7.622;2023-02-15T08:43:36;1.70;99.90
15115;DHT22;7658;51.456;7.622;2023-02-15T08:46:02;1.80;99.90
15115;DHT22;7658;51.456;7.622;2023-02-15T08:48:28;2.00;99.90
15115;DHT22;7658;51.456;7.622;2023-02-15T08:50:54;2.10;99.90
15115;DHT22;7658;51.456;7.622;2023-02-15T08:53:19;2.30;99.90
15115;DHT22;7658;51.456;7.622;2023-02-15T08:55:54;2.50;99.90
15115;DHT22;7658;51.456;7.622;2023-02-15T08:58:20;2.60;99.90
15115;DHT22;7658;51.456;7.622;2023-02-15T09:00:45;2.80;99.90
15115;DHT22;7658;51.456;7.622;2023-02-15T09:03:11;2.90;99.90
15115;DHT22;7658;51.456;7.622;2023-02-15T09:05:37;3.10;99.90
15115;DHT22;7658;51.456;7.622;2023-02-15T09:08:02;3.30;99.90
15115;DHT22;7658;51.456;7.622;2023-02-15T09:10:28;3.60;99.90
15115;DHT22;7658;51.456;7.622;2023-02-15T09:12:54;3.80;99.90
15115;DHT22;7658;51.456;7.622;2023-02-15T09:15:19;4.00;99.90
15115;DHT22;7658;51.456;7.622;2023-02-15T09:17:45;4.20;99.90
15115;DHT22;7658;51.456;7.622;2023-02-15T09:20:11;4.30;99.90
15115;DHT22;7658;51.456;7.622;2023-02-15T09:22:37;4.50;99.90
15115;DHT22;7658;51.456;7.622;2023-02-15T09:25:03;4.70;99.90
15115;DHT22;7658;51.456;7.622;2023-02-15T09:27:29;4.80;99.90
15115;DHT22;7658;51.456;7.622;2023-02-15T09:29:55;5.00;99.90
15115;DHT22;7658;51.456;7.622;2023-02-15T09:32:21;5.20;99.90
15115;DHT22;7658;51.456;7.622;2023-02-15T09:34:47;5.40;99.90
15115;DHT22;7658;51.456;7.622;2023-02-15T09:37:13;5.50;99.90
15115;DHT22;7658;51.456;7.622;2023-02-15T09:39:41;5.60;99.90
15115;DHT22;7658;51.456;7.622;2023-02-15T09:42:14;5.90;99.90
15115;DHT22;7658;51.456;7.622;2023-02-15T09:44:47;6.00;99.90
15115;DHT22;7658;51.456;7.622;2023-02-15T09:50:07;6.20;99.90
15115;DHT22;7658;51.456;7.622;2023-02-15T10:07:21;6.90;99.90
15115;DHT22;7658;51.456;7.622;2023-02-15T10:12:57;7.10;99.90
15115;DHT22;7658;51.456;7.622;2023-02-15T10:15:41;7.10;99.90
15115;DHT22;7658;51.456;7.622;2023-02-15T10:20:56;7.20;99.90
15115;DHT22;7658;51.456;7.622;2023-02-15T10:23:53;7.30;99.90
15115;DHT22;7658;51.456;7.622;2023-02-15T10:26:28;7.50;99.90
15115;DHT22;7658;51.456;7.622;2023-02-15T10:29:05;7.60;99.90
15115;DHT22;7658;51.456;7.622;2023-02-15T10:31:59;7.80;99.90
15115;DHT22;7658;51.456;7.622;2023-02-15T10:37:32;8.10;99.90
15115;DHT22;7658;51.456;7.622;2023-02-15T10:40:22;8.20;99.90
15115;DHT22;7658;51.456;7.622;2023-02-15T11:01:37;9.90;99.90
15115;DHT22;7658;51.456;7.622;2023-02-15T11:06:56;10.50;99.90
15115;DHT22;7658;51.456;7.622;2023-02-15T11:09:25;10.80;99.90
15115;DHT22;7658;51.456;7.622;2023-02-15T11:11:53;11.00;99.90
15115;DHT22;7658;51.456;7.622;2023-02-15T11:14:55;11.10;99.90
15115;DHT22;7658;51.456;7.622;2023-02-15T11:17:25;11.30;99.90
15115;DHT22;7658;51.456;7.622;2023-02-15T11:20:02;11.60;99.90
15115;DHT22;7658;51.456;7.622;2023-02-15T11:22:32;11.80;99.90
15115;DHT22;7658;51.456;7.622;2023-02-15T11:25:00;11.90;99.90
15115;DHT22;7658;51.456;7.622;2023-02-15T11:27:33;12.10;99.90
15115;DHT22;7658;51.456;7.622;2023-02-15T11:32:34;12.60;99.90
15115;DHT22;7658;51.456;7.622;2023-02-15T11:37:43;12.80;99.90
15115;DHT22;7658;51.456;7.622;2023-02-15T11:40:36;12.90;99.90
15115;DHT22;7658;51.456;7.622;2023-02-15T11:43:12;13.10;99.90
15115;DHT22;7658;51.456;7.622;2023-02-15T11:45:41;13.30;99.90
15115;DHT22;7658;51.456;7.622;2023-02-15T11:48:10;13.60;99.90
15115;DHT22;7658;51.456;7.622;2023-02-15T11:50:36;13.70;99.90
15115;DHT22;7658;51.456;7.622;2023-02-15T11:55:36;14.10;99.90
15115;DHT22;7658;51.456;7.622;2023-02-15T12:01:03;14.40;99.90
15115;DHT22;7658;51.456;7.622;2023-02-15T12:03:46;14.40;99.90
15115;DHT22;7658;51.456;7.622;2023-02-15T12:06:30;14.50;99.90
15115;DHT22;7658;51.456;7.622;2023-02-15T12:09:12;14.40;99.90
15115;DHT22;7658;51.456;7.622;2023-02-15T12:11:40;14.50;99.90
15115;DHT22;7658;51.456;7.622;2023-02-15T12:14:08;14.60;99.90
15115;DHT22;7658;51.456;7.622;2023-02-15T12:16:51;14.70;99.90
15115;DHT22;7658;51.456;7.622;2023-02-15T12:19:29;14.80;99.90
15115;DHT22;7658;51.456;7.622;2023-02-15T12:21:56;14.80;99.90
15115;DHT22;7658;51.456;7.622;2023-02-15T12:29:42;15.10;99.90
15115;DHT22;7658;51.456;7.622;2023-02-15T12:32:22;15.10;99.90
15115;DHT22;7658;51.456;7.622;2023-02-15T12:34:55;15.10;99.90
15115;DHT22;7658;51.456;7.622;2023-02-15T12:37:26;15.20;99.90
15115;DHT22;7658;51.456;7.622;2023-02-15T12:39:58;15.20;99.90
15115;DHT22;7658;51.456;7.622;2023-02-15T12:42:26;15.20;99.90
15115;DHT22;7658;51.456;7.622;2023-02-15T12:45:03;15.10;99.90
15115;DHT22;7658;51.456;7.622;2023-02-15T12:47:30;15.10;99.90
15115;DHT22;7658;51.456;7.622;2023-02-15T12:53:02;15.00;99.90
15115;DHT22;7658;51.456;7.622;2023-02-15T12:55:30;15.00;99.90
15115;DHT22;7658;51.456;7.622;2023-02-15T12:58:19;14.90;99.90
15115;DHT22;7658;51.456;7.622;2023-02-15T13:00:46;14.90;99.90
15115;DHT22;7658;51.456;7.622;2023-02-15T13:03:20;14.90;99.90
15115;DHT22;7658;51.456;7.622;2023-02-15T13:05:50;15.00;99.90
15115;DHT22;7658;51.456;7.622;2023-02-15T13:08:20;15.10;99.90
15115;DHT22;7658;51.456;7.622;2023-02-15T13:11:06;15.20;99.90
15115;DHT22;7658;51.456;7.622;2023-02-15T13:13:58;15.40;99.90
15115;DHT22;7658;51.456;7.622;2023-02-15T13:16:34;15.50;99.90
15115;DHT22;7658;51.456;7.622;2023-02-15T13:19:29;15.70;99.90
15115;DHT22;7658;51.456;7.622;2023-02-15T13:21:57;15.80;99.90
15115;DHT22;7658;51.456;7.622;2023-02-15T13:24:48;15.70;99.90
15115;DHT22;7658;51.456;7.622;2023-02-15T13:27:19;15.40;99.90
15115;DHT22;7658;51.456;7.622;2023-02-15T13:29:54;15.50;99.90
15115;DHT22;7658;51.456;7.622;2023-02-15T13:32:37;15.50;99.90
15115;DHT22;7658;51.456;7.622;2023-02-15T13:35:14;15.50;99.90
15115;DHT22;7658;51.456;7.622;2023-02-15T13:49:05;15.80;99.90
15115;DHT22;7658;51.456;7.622;2023-02-15T14:11:01;15.50;99.90
15115;DHT22;7658;51.456;7.622;2023-02-15T14:13:55;15.50;99.90
15115;DHT22;7658;51.456;7.622;2023-02-15T14:21:54;15.60;99.90
15115;DHT22;7658;51.456;7.622;2023-02-15T14:24:34;15.60;99.90
15115;DHT22;7658;51.456;7.622;2023-02-15T14:29:59;15.40;99.90
15115;DHT22;7658;51.456;7.622;2023-02-15T14:32:38;15.30;99.90
15115;DHT22;7658;51.456;7.622;2023-02-15T14:35:14;15.30;99.90
15115;DHT22;7658;51.456;7.622;2023-02-15T14:40:31;15.20;99.90
15115;DHT22;7658;51.456;7.622;2023-02-15T14:43:27;15.20;99.90
15115;DHT22;7658;51.456;7.622;2023-02-15T14:48:45;15.10;99.90
15115;DHT22;7658;51.456;7.622;2023-02-15T14:54:52;15.00;99.90
15115;DHT22;7658;51.456;7.622;2023-02-15T15:02:21;14.80;99.90
15115;DHT22;7658;51.456;7.622;2023-02-15T15:05:17;14.70;99.90
15115;DHT22;7658;51.456;7.622;2023-02-15T15:07:53;14.60;99.90
15115;DHT22;7658;51.456;7.622;2023-02-15T15:12:51;14.40;99.90
15115;DHT22;7658;51.456;7.622;2023-02-15T15:25:57;13.90;99.90
15115;DHT22;7658;51.456;7.622;2023-02-15T15:31:37;13.70;99.90
15115;DHT22;7658;51.456;7.622;2023-02-15T15:48:40;12.90;99.90
15115;DHT22;7658;51.456;7.622;2023-02-15T15:51:20;12.80;99.90
15115;DHT22;7658;51.456;7.622;2023-02-15T15:53:50;12.70;99.90
15115;DHT22;7658;51.456;7.622;2023-02-15T15:56:25;12.60;99.90
15115;DHT22;7658;51.456;7.622;2023-02-15T15:58:57;12.50;99.90
15115;DHT22;7658;51.456;7.622;2023-02-15T16:01:26;12.40;99.90
15115;DHT22;7658;51.456;7.622;2023-02-15T16:03:54;12.30;99.90
15115;DHT22;7658;51.456;7.622;2023-02-15T16:06:35;12.20;99.90
15115;DHT22;7658;51.456;7.622;2023-02-15T16:09:24;12.10;99.90
15115;DHT22;7658;51.456;7.622;2023-02-15T16:11:56;11.90;99.90
15115;DHT22;7658;51.456;7.622;2023-02-15T16:14:32;11.80;99.90
15115;DHT22;7658;51.456;7.622;2023-02-15T16:17:04;11.70;99.90
15115;DHT22;7658;51.456;7.622;2023-02-15T16:19:33;11.60;99.90
15115;DHT22;7658;51.456;7.622;2023-02-15T16:22:02;11.60;99.90
15115;DHT22;7658;51.456;7.622;2023-02-15T16:27:48;11.40;99.90
15115;DHT22;7658;51.456;7.622;2023-02-15T16:30:32;11.30;99.90
15115;DHT22;7658;51.456;7.622;2023-02-15T16:33:15;11.30;99.90
15115;DHT22;7658;51.456;7.622;2023-02-15T16:35:57;11.20;99.90
15115;DHT22;7658;51.456;7.622;2023-02-15T16:41:10;11.10;99.90
15115;DHT22;7658;51.456;7.622;2023-02-15T16:43:37;10.90;99.90
15115;DHT22;7658;51.456;7.622;2023-02-15T16:46:10;10.80;99.90
15115;DHT22;7658;51.456;7.622;2023-02-15T16:48:43;10.80;99.90
15115;DHT22;7658;51.456;7.622;2023-02-15T16:51:21;10.90;99.90
15115;DHT22;7658;51.456;7.622;2023-02-15T16:53:47;10.80;99.90
15115;DHT22;7658;51.456;7.622;2023-02-15T16:56:14;10.70;99.90
15115;DHT22;7658;51.456;7.622;2023-02-15T16:58:43;10.50;99.90
15115;DHT22;7658;51.456;7.622;2023-02-15T17:01:12;10.40;99.90
15115;DHT22;7658;51.456;7.622;2023-02-15T17:03:41;10.20;99.90
15115;DHT22;7658;51.456;7.622;2023-02-15T17:06:27;10.10;99.90
15115;DHT22;7658;51.456;7.622;2023-02-15T17:09:12;9.90;99.90
15115;DHT22;7658;51.456;7.622;2023-02-15T17:11:43;9.90;99.90
15115;DHT22;7658;51.456;7.622;2023-02-15T17:16:42;9.50;99.90
15115;DHT22;7658;51.456;7.622;2023-02-15T17:19:19;9.40;99.90
15115;DHT22;7658;51.456;7.622;2023-02-15T17:21:52;9.30;99.90
15115;DHT22;7658;51.456;7.622;2023-02-15T17:24:24;9.20;99.90
15115;DHT22;7658;51.456;7.622;2023-02-15T17:26:54;9.10;99.90
15115;DHT22;7658;51.456;7.622;2023-02-15T17:29:44;9.10;99.90
15115;DHT22;7658;51.456;7.622;2023-02-15T17:32:18;9.00;99.90
15115;DHT22;7658;51.456;7.622;2023-02-15T17:37:45;8.90;99.90
15115;DHT22;7658;51.456;7.622;2023-02-15T17:40:28;8.90;99.90
15115;DHT22;7658;51.456;7.622;2023-02-15T17:42:54;8.80;99.90
15115;DHT22;7658;51.456;7.622;2023-02-15T17:45:22;8.70;99.90
15115;DHT22;7658;51.456;7.622;2023-02-15T17:47:48;8.70;99.90
15115;DHT22;7658;51.456;7.622;2023-02-15T17:50:20;8.60;99.90
15115;DHT22;7658;51.456;7.622;2023-02-15T17:52:47;8.50;99.90
15115;DHT22;7658;51.456;7.622;2023-02-15T17:55:15;8.40;99.90
15115;DHT22;7658;51.456;7.622;2023-02-15T17:58:01;8.30;99.90
15115;DHT22;7658;51.456;7.622;2023-02-15T18:00:27;8.30;99.90
15115;DHT22;7658;51.456;7.622;2023-02-15T18:03:11;8.30;99.90
15115;DHT22;7658;51.456;7.622;2023-02-15T18:05:56;8.20;99.90
15115;DHT22;7658;51.456;7.622;2023-02-15T18:08:40;8.20;99.90
15115;DHT22;7658;51.456;7.622;2023-02-15T18:11:24;8.10;99.90
15115;DHT22;7658;51.456;7.622;2023-02-15T18:14:06;8.10;99.90
15115;DHT22;7658;51.456;7.622;2023-02-15T18:16:38;8.00;99.90
15115;DHT22;7658;51.456;7.622;2023-02-15T18:19:15;8.00;99.90
15115;DHT22;7658;51.456;7.622;2023-02-15T18:21:42;8.00;99.90
15115;DHT22;7658;51.456;7.622;2023-02-15T18:24:19;7.90;99.90
15115;DHT22;7658;51.456;7.622;2023-02-15T18:26:46;7.90;99.90
15115;DHT22;7658;51.456;7.622;2023-02-15T18:29:12;7.80;99.90
15115;DHT22;7658;51.456;7.622;2023-02-15T18:31:38;7.80;99.90
15115;DHT22;7658;51.456;7.622;2023-02-15T18:34:05;7.80;99.90
15115;DHT22;7658;51.456;7.622;2023-02-15T18:36:43;7.80;99.90
15115;DHT22;7658;51.456;7.622;2023-02-15T18:39:38;7.70;99.90
15115;DHT22;7658;51.456;7.622;2023-02-15T18:42:37;7.70;99.90
15115;DHT22;7658;51.456;7.622;2023-02-15T18:45:23;7.90;99.90
15115;DHT22;7658;51.456;7.622;2023-02-15T18:47:49;8.00;99.90
15115;DHT22;7658;51.456;7.622;2023-02-15T18:50:18;8.10;99.90
15115;DHT22;7658;51.456;7.622;2023-02-15T18:52:45;8.20;99.90
15115;DHT22;7658;51.456;7.622;2023-02-15T18:55:18;8.20;99.90
15115;DHT22;7658;51.456;7.622;2023-02-15T18:57:46;8.40;99.90
15115;DHT22;7658;51.456;7.622;2023-02-15T19:00:38;8.60;99.90
15115;DHT22;7658;51.456;7.622;2023-02-15T19:03:03;8.70;99.90
15115;DHT22;7658;51.456;7.622;2023-02-15T19:05:31;8.70;99.90
15115;DHT22;7658;51.456;7.622;2023-02-15T19:07:58;8.80;99.90
15115;DHT22;7658;51.456;7.622;2023-02-15T19:10:26;8.80;99.90
15115;DHT22;7658;51.456;7.622;2023-02-15T19:12:53;8.80;99.90
15115;DHT22;7658;51.456;7.622;2023-02-15T19:15:22;8.70;99.90
15115;DHT22;7658;51.456;7.622;2023-02-15T19:17:48;8.70;99.90
15115;DHT22;7658;51.456;7.622;2023-02-15T19:20:19;8.70;99.90
15115;DHT22;7658;51.456;7.622;2023-02-15T19:22:50;8.70;99.90
15115;DHT22;7658;51.456;7.622;2023-02-15T19:25:26;8.60;99.90
15115;DHT22;7658;51.456;7.622;2023-02-15T19:27:53;8.50;99.90
15115;DHT22;7658;51.456;7.622;2023-02-15T19:30:25;8.50;99.90